Beeson, West Virginia
Current Conditions -  °F | °C
As of 6:52 AM on Tuesday 27 Jan 2015 (Local Time) from KBLF Reporting Station
Overcast Overcast  
Wind Chill: 10°   Ceiling: 1400
Heat Index: 20°   Visibility: 10mi
Dew Point: 13°   Wind: 8mph
Humidity: 74%   Direction: 300°WNW
Pressure: 29.76"   Gusts: NA
Location:  37.48°N, 81.23°W
Report Text: KBLF 271152Z AUTO 30007KT 10SM OVC014 M07/M11 A2976 RMK AO2 SLP105 60000 70003 T10671106 11056 21067 53006
Loading
Personal Weather Stations






























Interactive Weather Map New forecast layout! Learn more

10-Day Weather Forecast

Advertisements
Track Severe Weather on mobile